Time;durP1;ratioP1;P1;durP2;ratioP2;P2;SDS_P1;SDS_P2;PMS_P1;PMS_P2;Temp;Humidity;BMP_temperature;BMP_pressure;BME280_temperature;BME280_humidity;BME280_pressure;Samples;Min_cycle;Max_cycle;Signal;HPM_P1;HPM_P2
2023/11/27 00:02:24;;;;;;;5.83;4.33;;;8.30;99.90;;;;;;5014319;28;20415;-69
2023/11/27 00:04:50;;;;;;;5.13;4.73;;;8.40;99.90;;;;;;5013967;28;20441;-69
2023/11/27 00:07:16;;;;;;;4.87;4.60;;;8.30;99.90;;;;;;5014217;28;20418;-69
2023/11/27 00:09:42;;;;;;;5.40;4.20;;;8.40;99.90;;;;;;5013571;28;20421;-69
2023/11/27 00:12:08;;;;;;;5.20;4.80;;;8.40;99.90;;;;;;5013834;28;20406;-69
2023/11/27 00:14:34;;;;;;;5.60;5.00;;;8.50;99.90;;;;;;5013531;28;20417;-69
2023/11/27 00:17:00;;;;;;;6.00;5.50;;;8.50;99.90;;;;;;5014092;28;20891;-69
2023/11/27 00:19:26;;;;;;;5.87;5.40;;;8.50;99.90;;;;;;5014294;28;20183;-70
2023/11/27 00:21:52;;;;;;;5.70;4.93;;;8.50;99.90;;;;;;5013936;28;20410;-69
2023/11/27 00:24:18;;;;;;;6.63;5.17;;;8.50;99.90;;;;;;5013974;28;20770;-69
2023/11/27 00:26:44;;;;;;;8.63;5.63;;;8.60;99.90;;;;;;5013346;28;20416;-69
2023/11/27 00:29:10;;;;;;;5.90;5.30;;;8.60;99.90;;;;;;5013870;28;20445;-69
2023/11/27 00:31:36;;;;;;;5.43;4.93;;;8.60;99.90;;;;;;5013257;28;20175;-69
2023/11/27 00:34:01;;;;;;;8.70;5.67;;;8.50;99.90;;;;;;5013789;28;20195;-69
2023/11/27 00:36:27;;;;;;;6.47;5.77;;;8.40;99.90;;;;;;5013659;28;20267;-63
2023/11/27 00:38:53;;;;;;;6.03;5.43;;;8.30;99.90;;;;;;5013790;28;20195;-69
2023/11/27 00:41:19;;;;;;;5.40;4.73;;;8.30;99.90;;;;;;5013730;28;20407;-69
2023/11/27 00:43:45;;;;;;;5.93;5.33;;;8.30;99.90;;;;;;5012981;28;20173;-69
2023/11/27 00:46:12;;;;;;;6.10;5.50;;;8.40;99.90;;;;;;5013850;28;20180;-69
2023/11/27 00:48:38;;;;;;;5.10;4.70;;;8.40;99.90;;;;;;5012940;28;20908;-69
2023/11/27 00:51:04;;;;;;;6.17;5.03;;;8.40;99.90;;;;;;5013491;28;20491;-69
2023/11/27 00:53:30;;;;;;;5.43;4.80;;;8.50;99.90;;;;;;5012899;28;20219;-68
2023/11/27 00:55:56;;;;;;;6.00;4.43;;;8.50;99.90;;;;;;5012175;28;20431;-69
2023/11/27 00:58:22;;;;;;;5.10;4.70;;;8.50;99.90;;;;;;5013118;28;20175;-69
2023/11/27 01:00:47;;;;;;;5.40;5.00;;;8.50;99.90;;;;;;5012777;28;20172;-69
2023/11/27 01:03:13;;;;;;;7.07;5.10;;;8.40;99.90;;;;;;5013020;28;20179;-69
2023/11/27 01:05:40;;;;;;;5.93;4.90;;;8.40;99.90;;;;;;5012648;28;20588;-69
2023/11/27 01:08:06;;;;;;;6.97;5.27;;;8.40;99.90;;;;;;5012770;28;20171;-69
2023/11/27 01:10:32;;;;;;;5.00;4.60;;;8.40;99.90;;;;;;5012106;28;20407;-68
2023/11/27 01:12:58;;;;;;;6.73;4.70;;;8.40;99.90;;;;;;5013100;28;20207;-69
2023/11/27 01:15:25;;;;;;;5.70;5.10;;;8.40;99.90;;;;;;5011979;28;20237;-69
2023/11/27 01:17:50;;;;;;;6.07;4.83;;;8.50;99.90;;;;;;5012447;28;20755;-69
2023/11/27 01:20:16;;;;;;;6.23;5.30;;;8.50;99.90;;;;;;5013202;28;20401;-69
2023/11/27 01:22:42;;;;;;;7.03;5.13;;;8.50;99.90;;;;;;5012138;28;20233;-69
2023/11/27 01:25:08;;;;;;;5.10;4.67;;;8.50;99.90;;;;;;5013022;28;20185;-69
2023/11/27 01:27:34;;;;;;;6.10;4.60;;;8.40;99.90;;;;;;5011435;28;20179;-69
2023/11/27 01:30:04;;;;;;;6.03;4.77;;;8.30;99.90;;;;;;4995183;28;20422;-69
2023/11/27 01:32:30;;;;;;;4.50;4.10;;;8.40;99.90;;;;;;5012804;28;20480;-69
2023/11/27 01:34:55;;;;;;;6.50;4.50;;;8.40;99.90;;;;;;5012498;28;20413;-69
2023/11/27 01:37:21;;;;;;;7.80;4.30;;;8.30;99.90;;;;;;5012860;28;20497;-69
2023/11/27 01:39:47;;;;;;;4.73;4.30;;;8.40;99.90;;;;;;4994622;28;20175;-69
2023/11/27 01:42:13;;;;;;;4.63;4.23;;;8.40;99.90;;;;;;5011622;28;20537;-69
2023/11/27 01:44:38;;;;;;;4.47;3.83;;;8.40;99.90;;;;;;5012155;28;20217;-69
2023/11/27 01:47:05;;;;;;;5.03;4.53;;;8.50;99.90;;;;;;5012710;28;20171;-69
2023/11/27 01:49:32;;;;;;;4.63;4.17;;;8.40;99.90;;;;;;4995206;28;20187;-69
2023/11/27 01:52:01;;;;;;;5.70;5.00;;;8.50;99.90;;;;;;5012491;28;20540;-68
2023/11/27 01:54:28;;;;;;;5.90;4.23;;;8.50;99.90;;;;;;5012582;28;20538;-69
2023/11/27 01:56:55;;;;;;;4.63;4.33;;;8.50;99.90;;;;;;4994428;28;20433;-69
2023/11/27 01:59:23;;;;;;;8.13;5.17;;;8.50;99.90;;;;;;4995151;28;20415;-70
2023/11/27 02:01:49;;;;;;;6.13;5.00;;;8.50;99.90;;;;;;4994453;28;20509;-69
2023/11/27 02:04:16;;;;;;;5.10;4.70;;;8.40;99.90;;;;;;5012605;28;20396;-69
2023/11/27 02:06:41;;;;;;;5.23;4.83;;;8.40;99.90;;;;;;5010564;28;20442;-69
2023/11/27 02:09:08;;;;;;;5.27;4.77;;;8.40;99.90;;;;;;4994613;28;20442;-69
2023/11/27 02:11:43;;;;;;;6.10;4.83;;;8.40;99.90;;;;;;5012176;28;20183;-62
2023/11/27 02:14:09;;;;;;;5.03;4.63;;;8.50;99.90;;;;;;5012549;28;20504;-69
2023/11/27 02:16:35;;;;;;;6.03;5.40;;;8.40;99.90;;;;;;5011625;28;20402;-69
2023/11/27 02:19:00;;;;;;;5.50;5.00;;;8.40;99.90;;;;;;5012440;28;20442;-69
2023/11/27 02:21:26;;;;;;;6.40;5.43;;;8.40;99.90;;;;;;5015357;28;20271;-69
2023/11/27 02:23:52;;;;;;;5.70;5.20;;;8.40;99.90;;;;;;5015287;28;20517;-69
2023/11/27 02:26:17;;;;;;;6.30;5.30;;;8.40;99.90;;;;;;5016182;28;20184;-69
2023/11/27 02:28:43;;;;;;;6.30;5.70;;;8.50;99.90;;;;;;5014408;28;20255;-69
2023/11/27 02:31:09;;;;;;;5.50;5.07;;;8.40;99.90;;;;;;5016055;28;20529;-69
2023/11/27 02:33:38;;;;;;;6.17;5.67;;;8.30;99.90;;;;;;5015157;28;20229;-65
2023/11/27 02:36:05;;;;;;;6.37;5.33;;;8.20;99.90;;;;;;5015932;28;20406;-69
2023/11/27 02:38:30;;;;;;;8.83;5.60;;;8.20;99.90;;;;;;5015937;28;20403;-69
2023/11/27 02:40:56;;;;;;;6.90;5.83;;;8.30;99.90;;;;;;5015267;28;20901;-69
2023/11/27 02:43:22;;;;;;;5.70;5.20;;;8.20;99.90;;;;;;5015886;28;20183;-69
2023/11/27 02:45:48;;;;;;;6.40;5.80;;;8.20;99.90;;;;;;5015281;28;20171;-69
2023/11/27 02:48:13;;;;;;;6.30;5.80;;;8.30;99.90;;;;;;5015434;28;20175;-69
2023/11/27 02:50:39;;;;;;;6.37;5.77;;;8.30;99.90;;;;;;5014835;28;20611;-69
2023/11/27 02:53:05;;;;;;;6.37;5.77;;;8.30;99.90;;;;;;5015257;28;20230;-69
2023/11/27 02:55:31;;;;;;;5.97;5.10;;;8.40;99.90;;;;;;5015357;28;20633;-70
2023/11/27 02:57:56;;;;;;;7.33;5.70;;;8.40;99.90;;;;;;5014977;28;20224;-69
2023/11/27 03:00:23;;;;;;;6.60;5.90;;;8.40;99.90;;;;;;5014188;28;20837;-69
2023/11/27 03:02:49;;;;;;;6.43;5.47;;;8.30;99.90;;;;;;5014938;28;20212;-69
2023/11/27 03:05:15;;;;;;;8.03;5.90;;;8.40;99.90;;;;;;5015178;28;20956;-69
2023/11/27 03:07:41;;;;;;;7.03;6.27;;;8.40;99.90;;;;;;5014775;28;20407;-69
2023/11/27 03:10:08;;;;;;;6.73;6.07;;;8.40;99.90;;;;;;5015394;28;20751;-69
2023/11/27 03:12:38;;;;;;;6.23;5.70;;;8.40;99.90;;;;;;5015178;28;20490;-69
2023/11/27 03:15:08;;;;;;;6.50;5.80;;;8.30;99.90;;;;;;5015573;28;20406;-69
2023/11/27 03:17:33;;;;;;;7.43;5.83;;;8.30;99.90;;;;;;5015547;28;20408;-69
2023/11/27 03:19:59;;;;;;;8.50;5.90;;;8.30;99.90;;;;;;5014193;28;20501;-69
2023/11/27 03:22:25;;;;;;;7.90;6.40;;;8.20;99.90;;;;;;5015079;28;20185;-69
2023/11/27 03:24:50;;;;;;;6.30;5.70;;;8.20;99.90;;;;;;5014506;28;20184;-69
2023/11/27 03:27:16;;;;;;;11.27;5.90;;;8.20;99.90;;;;;;5015115;28;20228;-69
2023/11/27 03:29:42;;;;;;;6.97;6.20;;;8.20;99.90;;;;;;5014479;28;20538;-69
2023/11/27 03:32:08;;;;;;;7.10;6.50;;;8.20;99.90;;;;;;5013991;28;20178;-69
2023/11/27 03:34:34;;;;;;;6.57;6.00;;;8.20;99.90;;;;;;5015023;28;20176;-69
2023/11/27 03:36:59;;;;;;;6.93;6.23;;;8.20;99.90;;;;;;5014307;28;20410;-69
2023/11/27 03:39:25;;;;;;;6.90;6.30;;;8.20;99.90;;;;;;5014899;28;20639;-69
2023/11/27 03:41:51;;;;;;;8.00;7.20;;;8.20;99.90;;;;;;5014207;28;20176;-69
2023/11/27 03:44:17;;;;;;;7.93;6.67;;;7.90;99.90;;;;;;5014821;28;20417;-69
2023/11/27 03:46:42;;;;;;;7.40;6.37;;;8.00;99.90;;;;;;5014029;28;20179;-69
2023/11/27 03:49:08;;;;;;;9.63;6.50;;;8.00;99.90;;;;;;5014695;28;20214;-69
2023/11/27 03:51:34;;;;;;;6.50;6.00;;;8.00;99.90;;;;;;5014477;28;20182;-69
2023/11/27 03:54:00;;;;;;;8.90;7.17;;;8.10;99.90;;;;;;5014153;28;20213;-69
2023/11/27 03:56:25;;;;;;;6.60;6.00;;;8.10;99.90;;;;;;5014489;28;20187;-69
2023/11/27 03:58:51;;;;;;;8.20;6.57;;;8.10;99.90;;;;;;4996080;28;20650;-69
2023/11/27 04:01:17;;;;;;;9.33;6.80;;;8.00;99.90;;;;;;5014411;28;20251;-69
2023/11/27 04:03:42;;;;;;;7.00;6.40;;;8.00;99.90;;;;;;5012512;28;20185;-69
2023/11/27 04:06:09;;;;;;;7.93;7.23;;;8.00;99.90;;;;;;5014451;28;20250;-69
2023/11/27 04:08:38;;;;;;;9.93;6.93;;;8.00;99.90;;;;;;5014574;28;20437;-69
2023/11/27 04:11:09;;;;;;;7.57;6.80;;;8.10;99.90;;;;;;5013661;28;20485;-70
2023/11/27 04:13:35;;;;;;;7.37;6.70;;;8.10;99.90;;;;;;4996776;28;20519;-69
2023/11/27 04:16:01;;;;;;;7.70;6.87;;;8.10;99.90;;;;;;5013531;28;20419;-69
2023/11/27 04:18:26;;;;;;;8.90;7.27;;;8.00;99.90;;;;;;5014106;28;20493;-69
2023/11/27 04:20:52;;;;;;;7.87;6.97;;;8.10;99.90;;;;;;5013510;28;20313;-68
2023/11/27 04:23:18;;;;;;;8.63;7.07;;;8.00;99.90;;;;;;5014059;28;20190;-69
2023/11/27 04:25:44;;;;;;;7.73;7.03;;;8.00;99.90;;;;;;5012120;28;20179;-68
2023/11/27 04:28:09;;;;;;;6.80;6.20;;;8.10;99.90;;;;;;5013890;28;20171;-69
2023/11/27 04:30:36;;;;;;;6.73;6.00;;;8.10;99.90;;;;;;5014244;28;20176;-69
2023/11/27 04:33:02;;;;;;;6.90;6.10;;;8.10;99.90;;;;;;5013396;28;20299;-69
2023/11/27 04:35:27;;;;;;;6.87;6.17;;;8.10;99.90;;;;;;5013803;28;20410;-69
2023/11/27 04:37:53;;;;;;;6.83;6.13;;;8.10;99.90;;;;;;5013178;28;20526;-69
2023/11/27 04:40:20;;;;;;;7.20;6.60;;;8.10;99.90;;;;;;4996116;28;20179;-69
2023/11/27 04:42:45;;;;;;;7.50;6.90;;;8.00;99.90;;;;;;5011427;28;20506;-68
2023/11/27 04:45:11;;;;;;;7.77;7.13;;;7.80;99.90;;;;;;5013818;28;20493;-69
2023/11/27 04:47:37;;;;;;;8.23;7.43;;;7.60;99.90;;;;;;5012286;28;20174;-69
2023/11/27 04:50:03;;;;;;;8.97;8.03;;;7.60;99.90;;;;;;5012819;28;20344;-69
2023/11/27 04:52:29;;;;;;;6.00;5.50;;;7.70;99.90;;;;;;5013176;28;20611;-69
2023/11/27 04:54:55;;;;;;;6.73;6.07;;;7.70;99.90;;;;;;5011659;28;20422;-68
2023/11/27 04:57:21;;;;;;;8.63;6.20;;;7.80;99.90;;;;;;5013516;28;20191;-68
2023/11/27 04:59:47;;;;;;;6.97;6.00;;;7.70;99.90;;;;;;5012969;28;20442;-68
2023/11/27 05:02:17;;;;;;;6.67;5.97;;;7.60;99.90;;;;;;5013711;28;20410;-68
2023/11/27 05:04:44;;;;;;;7.30;6.60;;;7.50;99.90;;;;;;5013253;28;20418;-69
2023/11/27 05:07:10;;;;;;;11.13;7.03;;;7.50;99.90;;;;;;5013292;28;20398;-68
2023/11/27 05:09:42;;;;;;;7.03;6.33;;;7.60;99.90;;;;;;5013148;28;20461;-69
2023/11/27 05:12:09;;;;;;;6.40;5.80;;;7.60;99.90;;;;;;5012711;28;20162;-69
2023/11/27 05:14:35;;;;;;;8.90;5.97;;;7.60;99.90;;;;;;5013039;28;20895;-69
2023/11/27 05:17:00;;;;;;;8.00;6.23;;;7.60;99.90;;;;;;5012588;28;20481;-69
2023/11/27 05:19:29;;;;;;;9.40;7.90;;;7.60;99.90;;;;;;5013256;28;20545;-69
2023/11/27 05:21:55;;;;;;;7.80;7.03;;;7.40;99.90;;;;;;5011112;28;20543;-68
2023/11/27 05:24:23;;;;;;;8.13;7.10;;;7.40;99.90;;;;;;5013142;28;20473;-69
2023/11/27 05:26:48;;;;;;;10.60;7.30;;;7.50;99.90;;;;;;5012387;28;20410;-69
2023/11/27 05:29:14;;;;;;;7.07;6.37;;;7.60;99.90;;;;;;5012742;28;20423;-68
2023/11/27 05:31:40;;;;;;;9.50;8.43;;;7.70;99.90;;;;;;5013104;28;20394;-69
2023/11/27 05:34:07;;;;;;;8.27;6.33;;;7.50;99.90;;;;;;5012201;28;20558;-69
2023/11/27 05:36:33;;;;;;;9.70;7.50;;;7.70;99.90;;;;;;5012670;28;20803;-68
2023/11/27 05:38:59;;;;;;;9.73;8.20;;;7.70;99.90;;;;;;5011140;28;20410;-69
2023/11/27 05:41:25;;;;;;;8.43;7.60;;;7.60;99.90;;;;;;5011580;28;20193;-67
2023/11/27 05:43:51;;;;;;;11.07;7.17;;;7.50;99.90;;;;;;4994806;28;20643;-68
2023/11/27 05:46:18;;;;;;;8.00;7.10;;;7.50;99.90;;;;;;5012569;28;20840;-69
2023/11/27 05:48:44;;;;;;;9.13;7.20;;;7.60;99.90;;;;;;4995216;28;20441;-69
2023/11/27 05:51:10;;;;;;;8.93;8.10;;;7.50;99.90;;;;;;5012142;28;20410;-68
2023/11/27 05:53:35;;;;;;;9.57;7.63;;;7.60;99.90;;;;;;5011248;28;20468;-68
2023/11/27 05:56:02;;;;;;;7.77;6.97;;;7.50;99.90;;;;;;4996937;28;20630;-68
2023/11/27 05:58:28;;;;;;;8.80;6.47;;;7.60;99.90;;;;;;5016568;28;20537;-69
2023/11/27 06:00:55;;;;;;;7.00;6.30;;;7.50;99.90;;;;;;5014642;28;20405;-69
2023/11/27 06:03:21;;;;;;;9.37;6.87;;;7.50;99.90;;;;;;5016633;28;20750;-69
2023/11/27 06:05:47;;;;;;;9.67;6.50;;;7.10;99.90;;;;;;5016238;28;20413;-62
2023/11/27 06:08:14;;;;;;;6.83;5.97;;;7.20;99.90;;;;;;5016302;28;20504;-69
2023/11/27 06:10:40;;;;;;;10.30;6.50;;;7.40;99.90;;;;;;5016537;28;20750;-68
2023/11/27 06:13:05;;;;;;;7.40;6.50;;;7.40;99.90;;;;;;5015754;28;20540;-69
2023/11/27 06:15:31;;;;;;;6.30;5.70;;;7.40;99.90;;;;;;5016485;28;20180;-69
2023/11/27 06:17:57;;;;;;;7.90;6.30;;;7.30;99.90;;;;;;5015479;28;20182;-69
2023/11/27 06:20:23;;;;;;;6.87;6.23;;;7.50;99.90;;;;;;5016031;28;20178;-69
2023/11/27 06:22:48;;;;;;;5.90;5.30;;;7.30;99.90;;;;;;5014928;28;20499;-65
2023/11/27 06:25:14;;;;;;;6.90;5.80;;;7.20;99.90;;;;;;5016410;28;20587;-69
2023/11/27 06:27:41;;;;;;;6.97;6.07;;;7.20;99.90;;;;;;5016231;28;20209;-69
2023/11/27 06:30:09;;;;;;;10.10;5.80;;;7.20;99.90;;;;;;5015570;28;20260;-69
2023/11/27 06:32:35;;;;;;;6.40;5.80;;;7.20;99.90;;;;;;4998516;28;20818;-69
2023/11/27 06:35:01;;;;;;;7.53;6.73;;;7.20;99.90;;;;;;4997853;28;20436;-68
2023/11/27 06:37:27;;;;;;;7.33;6.63;;;7.10;99.90;;;;;;5016270;28;20397;-69
2023/11/27 06:39:54;;;;;;;6.97;5.80;;;7.10;99.90;;;;;;5015347;28;20190;-69
2023/11/27 06:42:20;;;;;;;7.30;6.13;;;7.10;99.90;;;;;;5015804;28;20183;-69
2023/11/27 06:44:46;;;;;;;9.87;7.30;;;7.00;99.90;;;;;;5015410;28;20418;-72
2023/11/27 06:47:11;;;;;;;5.37;4.87;;;7.10;99.90;;;;;;5015101;28;20232;-69
2023/11/27 06:49:37;;;;;;;7.17;6.50;;;7.20;99.90;;;;;;4998137;28;20253;-69
2023/11/27 06:52:03;;;;;;;7.70;6.90;;;7.20;99.90;;;;;;5014478;28;20215;-69
2023/11/27 06:54:34;;;;;;;7.90;6.60;;;7.30;99.90;;;;;;5015008;28;20215;-69
2023/11/27 06:56:59;;;;;;;8.00;7.30;;;7.10;99.90;;;;;;5013792;28;20425;-69
2023/11/27 06:59:25;;;;;;;6.23;5.63;;;7.10;99.90;;;;;;5015661;28;20409;-69
2023/11/27 07:01:51;;;;;;;9.87;8.90;;;7.00;99.90;;;;;;5014966;28;20237;-63
2023/11/27 07:04:16;;;;;;;8.10;7.30;;;6.90;99.90;;;;;;5015552;28;20186;-69
2023/11/27 07:06:42;;;;;;;8.70;6.10;;;7.00;99.90;;;;;;5012863;28;20530;-69
2023/11/27 07:09:10;;;;;;;9.40;7.30;;;7.00;99.90;;;;;;5014829;28;20174;-69
2023/11/27 07:11:36;;;;;;;7.30;5.40;;;7.00;99.90;;;;;;5015535;28;20178;-69
2023/11/27 07:14:03;;;;;;;9.03;6.53;;;7.00;99.90;;;;;;4997252;28;20458;-68
2023/11/27 07:16:29;;;;;;;6.27;5.33;;;7.20;99.90;;;;;;4997821;28;20413;-69
2023/11/27 07:18:58;;;;;;;7.77;6.13;;;7.20;99.90;;;;;;5014420;28;20410;-68
2023/11/27 07:21:25;;;;;;;7.37;6.73;;;7.10;99.90;;;;;;5015397;28;20413;-69
2023/11/27 07:23:53;;;;;;;9.20;6.30;;;7.10;99.90;;;;;;5014766;28;20517;-69
2023/11/27 07:26:20;;;;;;;6.10;5.57;;;7.00;99.90;;;;;;5015106;28;20417;-69
2023/11/27 07:28:46;;;;;;;10.80;6.47;;;7.00;99.90;;;;;;5015107;28;20406;-69
2023/11/27 07:31:13;;;;;;;5.67;5.07;;;7.10;99.90;;;;;;5014403;28;20432;-69
2023/11/27 07:33:39;;;;;;;5.73;5.20;;;7.20;99.90;;;;;;4996952;28;20223;-69
2023/11/27 07:36:06;;;;;;;6.00;5.50;;;6.70;99.90;;;;;;4996914;28;20491;-69
2023/11/27 07:38:33;;;;;;;9.17;8.27;;;6.90;99.90;;;;;;5014850;28;20488;-68
2023/11/27 07:40:59;;;;;;;5.20;4.73;;;7.10;99.90;;;;;;5014317;28;20813;-69
2023/11/27 07:43:25;;;;;;;7.20;6.30;;;7.10;99.90;;;;;;5015109;28;20409;-69
2023/11/27 07:45:51;;;;;;;6.00;5.33;;;7.20;99.90;;;;;;5014789;28;20464;-69
2023/11/27 07:48:18;;;;;;;8.97;6.60;;;7.00;99.90;;;;;;5014117;28;20730;-69
2023/11/27 07:50:44;;;;;;;7.13;6.13;;;6.60;99.90;;;;;;5014347;28;20916;-69
2023/11/27 07:53:11;;;;;;;5.90;5.40;;;6.40;99.90;;;;;;4996161;28;20506;-69
2023/11/27 07:55:37;;;;;;;6.30;5.70;;;6.40;99.90;;;;;;5014501;28;20408;-69
2023/11/27 07:58:03;;;;;;;6.10;5.60;;;6.60;99.90;;;;;;5013910;28;20412;-69
2023/11/27 08:00:28;;;;;;;7.23;5.83;;;6.60;99.90;;;;;;5014489;28;20391;-69
2023/11/27 08:02:55;;;;;;;6.60;5.93;;;6.80;99.90;;;;;;5013776;28;20417;-63
2023/11/27 08:05:22;;;;;;;7.50;5.90;;;6.90;99.90;;;;;;5013235;28;20186;-69
2023/11/27 08:07:49;;;;;;;6.20;5.70;;;6.90;99.90;;;;;;5014112;28;20564;-69
2023/11/27 08:10:15;;;;;;;6.67;6.07;;;7.00;99.90;;;;;;5013802;28;20900;-69
2023/11/27 08:12:44;;;;;;;6.10;5.40;;;6.90;99.90;;;;;;5013893;28;20992;-69
2023/11/27 08:15:18;;;;;;;6.40;5.80;;;6.90;99.90;;;;;;5013632;28;20406;-69
2023/11/27 08:17:48;;;;;;;6.60;5.93;;;6.90;99.90;;;;;;5013831;28;20417;-69
2023/11/27 08:20:15;;;;;;;7.80;7.00;;;7.00;99.90;;;;;;5013628;28;20797;-69
2023/11/27 08:22:44;;;;;;;5.50;5.00;;;7.10;99.90;;;;;;5013673;28;20413;-69
2023/11/27 08:25:11;;;;;;;6.47;5.87;;;7.20;99.90;;;;;;5013407;28;20453;-68
2023/11/27 08:27:42;;;;;;;5.80;5.30;;;7.10;99.90;;;;;;5014261;28;20500;-69
2023/11/27 08:30:11;;;;;;;5.30;5.00;;;7.00;99.90;;;;;;5013361;28;20460;-69
2023/11/27 08:32:37;;;;;;;7.20;5.63;;;7.10;99.90;;;;;;5013914;28;20454;-69
2023/11/27 08:35:05;;;;;;;5.50;5.03;;;6.80;99.90;;;;;;5013532;28;20983;-69
2023/11/27 08:37:35;;;;;;;5.03;4.63;;;6.90;99.90;;;;;;5013866;28;20924;-69
2023/11/27 08:40:09;;;;;;;5.40;5.00;;;6.90;99.90;;;;;;5013260;28;20422;-68
2023/11/27 08:42:36;;;;;;;5.30;4.90;;;7.00;99.90;;;;;;5013784;28;20428;-69
2023/11/27 08:45:19;;;;;;;5.33;5.03;;;7.00;99.90;;;;;;5013086;28;20459;-69
2023/11/27 08:47:51;;;;;;;5.13;4.83;;;7.00;99.90;;;;;;5013708;28;20397;-69
2023/11/27 08:50:24;;;;;;;5.43;5.03;;;6.50;99.90;;;;;;5012988;28;20425;-69
2023/11/27 08:52:50;;;;;;;5.30;4.90;;;6.60;99.90;;;;;;5013041;28;20979;-69
2023/11/27 08:55:19;;;;;;;5.20;4.63;;;6.70;99.90;;;;;;5012934;28;20516;-69
2023/11/27 08:57:48;;;;;;;4.80;4.50;;;6.60;99.90;;;;;;5013615;28;20414;-69
2023/11/27 09:00:18;;;;;;;4.63;4.30;;;6.50;99.90;;;;;;5013058;28;20416;-69
2023/11/27 09:02:48;;;;;;;5.10;4.70;;;6.20;99.90;;;;;;5013627;28;20401;-69
2023/11/27 09:05:14;;;;;;;5.50;5.20;;;6.40;99.90;;;;;;5012788;28;20413;-69
2023/11/27 09:07:40;;;;;;;3.93;3.70;;;6.60;99.90;;;;;;4995837;28;20479;-69
2023/11/27 09:10:10;;;;;;;5.40;5.10;;;6.70;99.90;;;;;;5012581;28;20416;-69
2023/11/27 09:12:35;;;;;;;4.43;4.13;;;6.70;99.90;;;;;;5013110;28;20413;-69
2023/11/27 09:15:03;;;;;;;5.73;5.53;;;6.80;99.90;;;;;;5012638;28;20769;-69
2023/11/27 09:17:29;;;;;;;3.67;3.47;;;6.90;99.90;;;;;;5013122;28;20250;-69
2023/11/27 09:19:56;;;;;;;4.10;3.90;;;6.80;99.90;;;;;;5013161;28;20409;-70
2023/11/27 09:22:22;;;;;;;3.93;3.50;;;6.90;99.90;;;;;;5012522;28;20516;-70
2023/11/27 09:24:48;;;;;;;2.60;2.50;;;7.00;99.90;;;;;;5013187;28;20424;-69
2023/11/27 09:27:15;;;;;;;3.13;3.00;;;6.90;99.90;;;;;;5012119;28;20631;-69
2023/11/27 09:29:41;;;;;;;2.67;2.57;;;7.10;99.90;;;;;;5012333;28;20398;-69
2023/11/27 09:32:07;;;;;;;2.70;2.50;;;7.00;99.90;;;;;;5012470;28;20408;-69
2023/11/27 09:34:32;;;;;;;3.47;3.30;;;7.00;99.90;;;;;;5012632;28;20485;-71
2023/11/27 09:36:58;;;;;;;2.90;2.70;;;7.00;99.90;;;;;;5013251;28;20425;-70
2023/11/27 09:39:24;;;;;;;1.90;1.80;;;6.50;99.90;;;;;;5012301;28;20189;-70
2023/11/27 09:41:50;;;;;;;2.40;2.20;;;6.70;99.90;;;;;;5013231;28;20597;-71
2023/11/27 09:44:18;;;;;;;1.80;1.80;;;6.60;99.90;;;;;;5011916;28;20419;-68
2023/11/27 09:46:46;;;;;;;3.43;3.33;;;6.70;99.90;;;;;;5011587;28;20456;-68
2023/11/27 09:49:23;;;;;;;2.50;2.33;;;6.80;99.90;;;;;;5011905;28;20967;-68
2023/11/27 09:51:54;;;;;;;2.70;2.60;;;6.90;99.90;;;;;;5012563;28;20461;-68
2023/11/27 09:54:25;;;;;;;2.57;2.47;;;7.00;99.90;;;;;;5011939;28;20964;-68
2023/11/27 09:56:53;;;;;;;2.00;1.90;;;6.70;99.90;;;;;;4995567;28;20419;-68
2023/11/27 09:59:20;;;;;;;2.13;2.03;;;6.40;99.90;;;;;;5012133;28;20421;-69
2023/11/27 10:01:48;;;;;;;1.93;1.83;;;6.70;99.90;;;;;;5012641;28;20409;-69
2023/11/27 10:04:15;;;;;;;3.67;3.50;;;6.60;99.90;;;;;;5012076;28;20416;-68
2023/11/27 10:06:43;;;;;;;2.30;2.20;;;6.60;99.90;;;;;;5011761;28;20739;-69
2023/11/27 10:09:13;;;;;;;2.10;2.00;;;6.60;99.90;;;;;;5012004;28;20482;-69
2023/11/27 10:11:40;;;;;;;2.50;2.40;;;6.60;99.90;;;;;;5012881;28;20429;-68
2023/11/27 10:14:10;;;;;;;2.10;2.10;;;6.60;99.90;;;;;;5011532;28;20948;-68
2023/11/27 10:16:37;;;;;;;2.93;2.83;;;6.60;99.90;;;;;;5011410;28;20416;-69
2023/11/27 10:19:07;;;;;;;2.20;2.20;;;6.40;99.90;;;;;;5011703;28;20959;-68
2023/11/27 10:21:34;;;;;;;2.70;2.60;;;6.40;99.90;;;;;;4994924;28;20761;-69
2023/11/27 10:24:08;;;;;;;2.40;2.40;;;6.60;99.90;;;;;;5012050;28;20432;-69
2023/11/27 10:26:40;;;;;;;1.83;1.73;;;6.60;99.90;;;;;;5012562;28;20422;-69
2023/11/27 10:29:07;;;;;;;2.60;2.60;;;6.30;99.90;;;;;;5011940;28;20753;-68
2023/11/27 10:31:33;;;;;;;2.47;2.37;;;6.30;99.90;;;;;;5012219;28;20915;-70
2023/11/27 10:34:00;;;;;;;1.47;1.47;;;6.30;99.90;;;;;;5012219;28;20825;-69
2023/11/27 10:36:26;;;;;;;1.60;1.60;;;6.30;99.90;;;;;;5011706;28;20483;-69
2023/11/27 10:39:15;;;;;;;2.00;1.90;;;6.10;99.90;;;;;;5012340;28;20659;-69
2023/11/27 10:41:45;;;;;;;3.27;3.17;;;6.00;99.90;;;;;;5014067;28;20945;-69
2023/11/27 10:44:15;;;;;;;3.47;3.37;;;6.10;99.90;;;;;;5015303;28;20430;-68
2023/11/27 10:46:42;;;;;;;1.80;1.80;;;6.00;99.90;;;;;;5016154;28;20416;-69
2023/11/27 10:49:11;;;;;;;1.27;1.27;;;5.80;99.90;;;;;;5015282;28;20443;-69
2023/11/27 10:51:39;;;;;;;1.50;1.50;;;5.80;99.90;;;;;;5015601;28;20780;-68
2023/11/27 10:54:06;;;;;;;1.60;1.60;;;5.40;99.90;;;;;;5015369;28;20537;-62
2023/11/27 10:56:31;;;;;;;1.90;1.90;;;5.90;99.90;;;;;;5015708;28;20426;-69
2023/11/27 10:59:05;;;;;;;1.90;1.90;;;5.90;99.90;;;;;;5015992;28;20396;-69
2023/11/27 11:01:58;;;;;;;2.53;2.43;;;6.10;99.90;;;;;;4998378;28;20169;-69
2023/11/27 11:04:39;;;;;;;3.53;3.33;;;6.10;99.90;;;;;;5015081;28;20405;-69
2023/11/27 11:07:19;;;;;;;2.90;2.90;;;6.10;99.90;;;;;;5015342;28;20435;-61
2023/11/27 11:09:55;;;;;;;1.87;1.87;;;6.30;99.90;;;;;;5015362;28;20405;-70
2023/11/27 11:12:23;;;;;;;2.60;2.50;;;6.40;99.90;;;;;;5014690;28;20833;-68
2023/11/27 11:14:53;;;;;;;1.97;1.87;;;6.30;99.90;;;;;;5015059;28;20490;-69
2023/11/27 11:17:41;;;;;;;2.37;2.37;;;6.40;99.90;;;;;;4997211;28;20841;-68
2023/11/27 11:20:15;;;;;;;3.70;3.60;;;6.10;99.90;;;;;;5014705;28;20397;-68
2023/11/27 11:22:54;;;;;;;1.90;1.80;;;6.10;99.90;;;;;;4981605;28;20431;-68
2023/11/27 11:25:28;;;;;;;3.63;3.53;;;6.20;99.90;;;;;;5014674;28;20482;-68
2023/11/27 11:28:05;;;;;;;2.70;2.60;;;6.30;99.90;;;;;;5015297;28;20405;-69
2023/11/27 11:30:34;;;;;;;1.83;1.83;;;6.30;99.90;;;;;;5014869;28;20394;-68
2023/11/27 11:33:05;;;;;;;3.10;3.00;;;6.20;99.90;;;;;;5015129;28;20944;-68
2023/11/27 11:35:34;;;;;;;2.10;2.00;;;6.20;99.90;;;;;;5014481;28;20404;-69
2023/11/27 11:38:00;;;;;;;3.90;3.80;;;6.30;99.90;;;;;;4997461;28;20498;-69
2023/11/27 11:40:40;;;;;;;1.80;1.73;;;6.30;99.90;;;;;;5014048;28;20493;-69
2023/11/27 11:43:08;;;;;;;2.03;2.03;;;6.30;99.90;;;;;;5014958;28;20403;-69
2023/11/27 11:45:34;;;;;;;1.60;1.50;;;6.30;99.90;;;;;;5015153;28;20479;-68
2023/11/27 11:48:06;;;;;;;1.50;1.40;;;6.50;99.90;;;;;;5014347;28;20409;-69
2023/11/27 11:50:42;;;;;;;1.40;1.40;;;6.50;99.90;;;;;;5013248;28;20408;-68
2023/11/27 11:53:14;;;;;;;1.60;1.50;;;6.60;99.90;;;;;;5012860;28;20476;-63
2023/11/27 11:55:41;;;;;;;1.70;1.60;;;6.50;99.90;;;;;;5014374;28;20927;-69
2023/11/27 11:58:28;;;;;;;1.80;1.73;;;6.60;99.90;;;;;;4996862;28;20405;-69
2023/11/27 12:01:00;;;;;;;2.10;2.00;;;6.70;99.90;;;;;;5014585;28;20402;-69
2023/11/27 12:03:31;;;;;;;2.00;1.90;;;6.70;99.90;;;;;;5013985;28;20392;-68
2023/11/27 12:06:02;;;;;;;1.97;1.97;;;6.70;99.90;;;;;;5014538;28;20409;-68
2023/11/27 12:08:30;;;;;;;2.20;2.10;;;6.80;99.90;;;;;;5013836;28;20928;-69
2023/11/27 12:10:57;;;;;;;3.33;3.23;;;6.50;99.90;;;;;;5014370;28;20408;-69
2023/11/27 12:13:33;;;;;;;3.60;3.50;;;6.60;99.90;;;;;;5013624;28;20545;-69
2023/11/27 12:16:07;;;;;;;2.20;2.20;;;6.50;99.90;;;;;;5014336;28;20385;-70
2023/11/27 12:18:34;;;;;;;2.13;2.13;;;6.60;99.90;;;;;;5013849;28;20793;-69
2023/11/27 12:21:04;;;;;;;3.10;3.00;;;6.60;99.90;;;;;;4996707;28;20433;-69
2023/11/27 12:23:38;;;;;;;3.00;2.90;;;6.70;99.90;;;;;;5013559;28;20504;-69
2023/11/27 12:26:09;;;;;;;2.37;2.27;;;6.70;99.90;;;;;;5014153;28;20430;-69
2023/11/27 12:28:36;;;;;;;2.00;1.90;;;6.70;99.90;;;;;;5014153;28;20402;-69
2023/11/27 12:31:05;;;;;;;2.30;2.20;;;6.50;99.90;;;;;;5013708;28;20405;-69
2023/11/27 12:33:34;;;;;;;1.90;1.90;;;6.60;99.90;;;;;;5013381;28;20459;-69
2023/11/27 12:36:04;;;;;;;2.00;2.00;;;6.70;99.90;;;;;;5014299;28;20448;-69
2023/11/27 12:38:31;;;;;;;1.50;1.50;;;6.70;99.90;;;;;;5013341;28;20737;-69
2023/11/27 12:41:03;;;;;;;1.70;1.70;;;6.80;99.90;;;;;;5013790;28;20405;-69
2023/11/27 12:43:34;;;;;;;1.80;1.80;;;6.80;99.90;;;;;;5013237;28;20531;-69
2023/11/27 12:45:59;;;;;;;1.90;1.90;;;6.80;99.90;;;;;;5013793;28;20478;-69
2023/11/27 12:48:25;;;;;;;2.10;2.00;;;6.80;99.90;;;;;;5012206;28;20529;-69
2023/11/27 12:50:55;;;;;;;3.40;3.30;;;6.70;99.90;;;;;;4996324;28;20182;-69
2023/11/27 12:53:22;;;;;;;1.60;1.50;;;6.60;99.90;;;;;;5012913;28;20234;-69
2023/11/27 12:55:49;;;;;;;4.13;4.03;;;6.60;99.90;;;;;;5013591;28;20412;-69
2023/11/27 12:58:21;;;;;;;1.70;1.60;;;6.70;99.90;;;;;;5013048;28;20421;-69
2023/11/27 13:00:47;;;;;;;3.00;2.90;;;6.70;99.90;;;;;;5013511;28;20398;-69